Oakwood, Indiana
Current Conditions -  °F | °C
As of 4:35 AM on Friday 19 Dec 2014 (Local Time) from KANQ Reporting Station
Overcast Overcast  
Wind Chill: 21°   Ceiling: 1000
Heat Index: 27°   Visibility: 9mi
Dew Point: 25°   Wind: 5mph
Humidity: 93%   Direction: 280°W
Pressure: 30.2"   Gusts: NA
Location:  41.5557°N, 84.8806°W
Report Text: KANQ 190935Z AUTO 28004KT 9SM BKN010 OVC024 M03/M04 A3020 RMK
Loading
Personal Weather Stations






























Interactive Weather Map New forecast layout! Learn more

10-Day Weather Forecast

Advertisements
Track Severe Weather on mobile